sensor_id;sensor_type;location;lat;lon;timestamp;pressure;altitude;pressure_sealevel;temperature;humidity
51715;BME280;39115;59.332;18.034;2022-10-23T00:01:30;100530.38;;;7.93;67.26
51715;BME280;39115;59.332;18.034;2022-10-23T00:03:56;100530.38;;;7.93;67.14
51715;BME280;39115;59.332;18.034;2022-10-23T00:06:23;100529.38;;;7.94;67.06
51715;BME280;39115;59.332;18.034;2022-10-23T00:08:48;100531.94;;;7.96;67.34
51715;BME280;39115;59.332;18.034;2022-10-23T00:11:15;100523.97;;;7.96;67.36
51715;BME280;39115;59.332;18.034;2022-10-23T00:13:41;100519.38;;;7.98;67.32
51715;BME280;39115;59.332;18.034;2022-10-23T00:16:07;100526.50;;;7.97;67.17
51715;BME280;39115;59.332;18.034;2022-10-23T00:18:32;100529.97;;;7.98;67.22
51715;BME280;39115;59.332;18.034;2022-10-23T00:20:58;100523.13;;;7.95;67.32
51715;BME280;39115;59.332;18.034;2022-10-23T00:23:23;100523.13;;;7.95;67.25
51715;BME280;39115;59.332;18.034;2022-10-23T00:25:48;100527.31;;;7.98;67.52
51715;BME280;39115;59.332;18.034;2022-10-23T00:28:14;100534.31;;;7.99;67.19
51715;BME280;39115;59.332;18.034;2022-10-23T00:30:39;100525.66;;;7.97;67.44
51715;BME280;39115;59.332;18.034;2022-10-23T00:33:04;100529.28;;;7.96;67.16
51715;BME280;39115;59.332;18.034;2022-10-23T00:35:30;100530.97;;;7.97;67.27
51715;BME280;39115;59.332;18.034;2022-10-23T00:37:55;100533.63;;;7.97;67.27
51715;BME280;39115;59.332;18.034;2022-10-23T00:40:20;100527.31;;;7.98;67.30
51715;BME280;39115;59.332;18.034;2022-10-23T00:42:45;100525.66;;;7.97;67.15
51715;BME280;39115;59.332;18.034;2022-10-23T00:45:19;100528.44;;;7.95;67.27
51715;BME280;39115;59.332;18.034;2022-10-23T00:47:44;100532.91;;;7.95;67.32
51715;BME280;39115;59.332;18.034;2022-10-23T00:50:10;100524.22;;;7.93;67.36
51715;BME280;39115;59.332;18.034;2022-10-23T00:52:36;100526.03;;;7.92;67.19
51715;BME280;39115;59.332;18.034;2022-10-23T00:55:03;100532.31;;;7.91;67.43
51715;BME280;39115;59.332;18.034;2022-10-23T00:57:29;100521.09;;;7.87;67.35
51715;BME280;39115;59.332;18.034;2022-10-23T00:59:54;100529.16;;;7.86;67.54
51715;BME280;39115;59.332;18.034;2022-10-23T01:02:20;100529.28;;;7.84;67.33
51715;BME280;39115;59.332;18.034;2022-10-23T01:04:45;100535.69;;;7.82;67.45
51715;BME280;39115;59.332;18.034;2022-10-23T01:07:16;100530.59;;;7.79;67.42
51715;BME280;39115;59.332;18.034;2022-10-23T01:09:45;100529.06;;;7.76;67.28
51715;BME280;39115;59.332;18.034;2022-10-23T01:12:21;100532.78;;;7.73;67.23
51715;BME280;39115;59.332;18.034;2022-10-23T01:14:57;100533.88;;;7.71;67.43
51715;BME280;39115;59.332;18.034;2022-10-23T01:17:26;100539.41;;;7.68;67.43
51715;BME280;39115;59.332;18.034;2022-10-23T01:20:00;100533.50;;;7.64;67.57
51715;BME280;39115;59.332;18.034;2022-10-23T01:22:43;100538.34;;;7.59;67.33
51715;BME280;39115;59.332;18.034;2022-10-23T01:27:41;100548.56;;;7.52;67.29
51715;BME280;39115;59.332;18.034;2022-10-23T01:30:13;100542.56;;;7.50;67.54
51715;BME280;39115;59.332;18.034;2022-10-23T01:32:44;100551.56;;;7.48;67.46
51715;BME280;39115;59.332;18.034;2022-10-23T01:35:13;100549.88;;;7.47;67.54
51715;BME280;39115;59.332;18.034;2022-10-23T01:38:23;100547.34;;;7.45;67.53
51715;BME280;39115;59.332;18.034;2022-10-23T01:40:33;100542.19;;;7.43;67.42
51715;BME280;39115;59.332;18.034;2022-10-23T01:43:08;100545.78;;;7.42;67.65
51715;BME280;39115;59.332;18.034;2022-10-23T01:45:40;100547.63;;;7.42;67.60
51715;BME280;39115;59.332;18.034;2022-10-23T01:48:07;100549.16;;;7.44;67.73
51715;BME280;39115;59.332;18.034;2022-10-23T01:50:34;100551.09;;;7.42;67.50
51715;BME280;39115;59.332;18.034;2022-10-23T01:53:01;100556.50;;;7.41;67.49
51715;BME280;39115;59.332;18.034;2022-10-23T01:55:27;100547.84;;;7.39;67.74
51715;BME280;39115;59.332;18.034;2022-10-23T01:57:53;100553.25;;;7.37;67.85
51715;BME280;39115;59.332;18.034;2022-10-23T02:00:18;100552.31;;;7.38;67.55
51715;BME280;39115;59.332;18.034;2022-10-23T02:02:44;100555.06;;;7.37;67.50
51715;BME280;39115;59.332;18.034;2022-10-23T02:05:16;100550.84;;;7.34;67.70
51715;BME280;39115;59.332;18.034;2022-10-23T02:07:43;100556.25;;;7.33;67.61
51715;BME280;39115;59.332;18.034;2022-10-23T02:10:08;100550.22;;;7.31;67.79
51715;BME280;39115;59.332;18.034;2022-10-23T02:15:13;100549.63;;;7.27;67.87
51715;BME280;39115;59.332;18.034;2022-10-23T02:20:35;100549.75;;;7.25;67.62
51715;BME280;39115;59.332;18.034;2022-10-23T02:23:02;100549.75;;;7.25;67.43
51715;BME280;39115;59.332;18.034;2022-10-23T02:25:30;100554.31;;;7.23;67.66
51715;BME280;39115;59.332;18.034;2022-10-23T02:27:57;100548.91;;;7.25;67.60
51715;BME280;39115;59.332;18.034;2022-10-23T02:30:25;100555.16;;;7.24;67.54
51715;BME280;39115;59.332;18.034;2022-10-23T02:32:51;100551.66;;;7.23;67.47
51715;BME280;39115;59.332;18.034;2022-10-23T02:35:19;100549.97;;;7.22;67.66
51715;BME280;39115;59.332;18.034;2022-10-23T02:37:51;100551.78;;;7.22;67.52
51715;BME280;39115;59.332;18.034;2022-10-23T02:40:17;100550.09;;;7.21;67.58
51715;BME280;39115;59.332;18.034;2022-10-23T02:42:44;100550.84;;;7.23;67.73
51715;BME280;39115;59.332;18.034;2022-10-23T02:45:18;100551.66;;;7.23;67.59
51715;BME280;39115;59.332;18.034;2022-10-23T02:50:32;100553.59;;;7.21;67.35
51715;BME280;39115;59.332;18.034;2022-10-23T02:58:10;100552.03;;;7.19;67.52
51715;BME280;39115;59.332;18.034;2022-10-23T03:00:41;100556.69;;;7.15;67.43
51715;BME280;39115;59.332;18.034;2022-10-23T03:03:13;100557.91;;;7.11;67.61
51715;BME280;39115;59.332;18.034;2022-10-23T03:05:41;100571.50;;;7.06;67.63
51715;BME280;39115;59.332;18.034;2022-10-23T03:08:09;100579.78;;;7.02;67.84
51715;BME280;39115;59.332;18.034;2022-10-23T03:10:35;100567.09;;;6.94;67.67
51715;BME280;39115;59.332;18.034;2022-10-23T03:13:00;100574.56;;;6.89;67.96
51715;BME280;39115;59.332;18.034;2022-10-23T03:15:25;100572.38;;;6.83;67.89
51715;BME280;39115;59.332;18.034;2022-10-23T03:17:51;100566.69;;;6.76;67.93
51715;BME280;39115;59.332;18.034;2022-10-23T03:20:16;100578.56;;;6.70;67.83
51715;BME280;39115;59.332;18.034;2022-10-23T03:22:41;100575.56;;;6.63;67.82
51715;BME280;39115;59.332;18.034;2022-10-23T03:25:07;100582.13;;;6.58;67.72
51715;BME280;39115;59.332;18.034;2022-10-23T03:27:32;100578.00;;;6.54;67.73
51715;BME280;39115;59.332;18.034;2022-10-23T03:29:58;100569.56;;;6.48;67.76
51715;BME280;39115;59.332;18.034;2022-10-23T03:32:23;100573.50;;;6.43;68.08
51715;BME280;39115;59.332;18.034;2022-10-23T03:34:48;100573.97;;;6.37;68.06
51715;BME280;39115;59.332;18.034;2022-10-23T03:37:14;100564.56;;;6.32;67.96
51715;BME280;39115;59.332;18.034;2022-10-23T03:39:39;100570.06;;;6.29;68.01
51715;BME280;39115;59.332;18.034;2022-10-23T03:42:04;100572.22;;;6.24;68.26
51715;BME280;39115;59.332;18.034;2022-10-23T03:44:30;100573.28;;;6.22;67.63
51715;BME280;39115;59.332;18.034;2022-10-23T03:46:55;100566.63;;;6.16;67.56
51715;BME280;39115;59.332;18.034;2022-10-23T03:49:21;100566.97;;;6.11;67.67
51715;BME280;39115;59.332;18.034;2022-10-23T03:51:46;100571.50;;;6.09;67.87
51715;BME280;39115;59.332;18.034;2022-10-23T03:54:16;100570.06;;;6.05;67.65
51715;BME280;39115;59.332;18.034;2022-10-23T03:56:41;100571.00;;;6.04;68.16
51715;BME280;39115;59.332;18.034;2022-10-23T03:59:07;100565.91;;;6.01;67.99
51715;BME280;39115;59.332;18.034;2022-10-23T04:01:32;100574.81;;;6.00;67.72
51715;BME280;39115;59.332;18.034;2022-10-23T04:03:57;100580.28;;;5.97;68.15
51715;BME280;39115;59.332;18.034;2022-10-23T04:06:22;100579.53;;;5.95;67.73
51715;BME280;39115;59.332;18.034;2022-10-23T04:08:48;100577.03;;;5.93;67.71
51715;BME280;39115;59.332;18.034;2022-10-23T04:11:13;100581.34;;;5.94;67.71
51715;BME280;39115;59.332;18.034;2022-10-23T04:13:38;100577.66;;;5.97;67.66
51715;BME280;39115;59.332;18.034;2022-10-23T04:16:04;100581.97;;;5.98;67.58
51715;BME280;39115;59.332;18.034;2022-10-23T04:18:29;100576.63;;;5.99;68.21
51715;BME280;39115;59.332;18.034;2022-10-23T04:20:54;100589.16;;;5.96;67.86
51715;BME280;39115;59.332;18.034;2022-10-23T04:23:20;100581.44;;;5.93;67.85
51715;BME280;39115;59.332;18.034;2022-10-23T04:25:45;100591.38;;;5.89;67.58
51715;BME280;39115;59.332;18.034;2022-10-23T04:28:11;100594.47;;;5.83;68.07
51715;BME280;39115;59.332;18.034;2022-10-23T04:30:36;100588.66;;;5.78;67.75
51715;BME280;39115;59.332;18.034;2022-10-23T04:33:01;100592.47;;;5.74;68.21
51715;BME280;39115;59.332;18.034;2022-10-23T04:35:27;100602.19;;;5.73;67.92
51715;BME280;39115;59.332;18.034;2022-10-23T04:37:52;100602.19;;;5.73;67.61
51715;BME280;39115;59.332;18.034;2022-10-23T04:40:17;100606.84;;;5.69;67.77
51715;BME280;39115;59.332;18.034;2022-10-23T04:42:42;100601.88;;;5.65;68.23
51715;BME280;39115;59.332;18.034;2022-10-23T04:45:08;100603.78;;;5.63;68.01
51715;BME280;39115;59.332;18.034;2022-10-23T04:47:33;100601.38;;;5.60;68.32
51715;BME280;39115;59.332;18.034;2022-10-23T04:49:58;100598.94;;;5.57;67.76
51715;BME280;39115;59.332;18.034;2022-10-23T04:52:24;100606.31;;;5.51;68.36
51715;BME280;39115;59.332;18.034;2022-10-23T04:54:49;100606.63;;;5.47;68.32
51715;BME280;39115;59.332;18.034;2022-10-23T04:57:14;100607.91;;;5.41;68.03
51715;BME280;39115;59.332;18.034;2022-10-23T04:59:40;100604.81;;;5.34;67.78
51715;BME280;39115;59.332;18.034;2022-10-23T05:02:05;100613.03;;;5.30;68.44
51715;BME280;39115;59.332;18.034;2022-10-23T05:04:30;100609.78;;;5.26;67.79
51715;BME280;39115;59.332;18.034;2022-10-23T05:06:56;100612.53;;;5.25;68.20
51715;BME280;39115;59.332;18.034;2022-10-23T05:09:21;100611.06;;;5.20;68.35
51715;BME280;39115;59.332;18.034;2022-10-23T05:11:47;100614.72;;;5.18;67.84
51715;BME280;39115;59.332;18.034;2022-10-23T05:14:12;100614.81;;;5.16;68.42
51715;BME280;39115;59.332;18.034;2022-10-23T05:16:45;100617.66;;;5.13;67.90
51715;BME280;39115;59.332;18.034;2022-10-23T05:19:13;100616.38;;;5.06;68.16
51715;BME280;39115;59.332;18.034;2022-10-23T05:21:42;100621.13;;;5.01;67.97
51715;BME280;39115;59.332;18.034;2022-10-23T05:24:07;100627.47;;;4.98;68.44
51715;BME280;39115;59.332;18.034;2022-10-23T05:26:34;100638.19;;;4.95;67.97
51715;BME280;39115;59.332;18.034;2022-10-23T05:28:59;100629.47;;;4.95;68.55
51715;BME280;39115;59.332;18.034;2022-10-23T05:31:24;100627.88;;;4.92;68.07
51715;BME280;39115;59.332;18.034;2022-10-23T05:33:50;100628.81;;;4.91;68.09
51715;BME280;39115;59.332;18.034;2022-10-23T05:36:16;100638.84;;;4.86;68.26
51715;BME280;39115;59.332;18.034;2022-10-23T05:38:42;100636.69;;;4.78;68.00
51715;BME280;39115;59.332;18.034;2022-10-23T05:41:07;100635.19;;;4.74;68.30
51715;BME280;39115;59.332;18.034;2022-10-23T05:43:32;100638.03;;;4.71;67.85
51715;BME280;39115;59.332;18.034;2022-10-23T05:45:58;100638.84;;;4.71;68.52
51715;BME280;39115;59.332;18.034;2022-10-23T05:48:23;100654.78;;;4.70;68.32
51715;BME280;39115;59.332;18.034;2022-10-23T05:50:49;100655.84;;;4.67;68.42
51715;BME280;39115;59.332;18.034;2022-10-23T05:53:14;100645.69;;;4.61;68.44
51715;BME280;39115;59.332;18.034;2022-10-23T05:55:39;100647.56;;;4.59;68.23
51715;BME280;39115;59.332;18.034;2022-10-23T05:58:04;100647.69;;;4.57;68.39
51715;BME280;39115;59.332;18.034;2022-10-23T06:00:30;100655.66;;;4.56;68.63
51715;BME280;39115;59.332;18.034;2022-10-23T06:02:57;100658.31;;;4.56;68.40
51715;BME280;39115;59.332;18.034;2022-10-23T06:05:23;100660.09;;;4.55;68.31
51715;BME280;39115;59.332;18.034;2022-10-23T06:07:48;100669.72;;;4.56;68.05
51715;BME280;39115;59.332;18.034;2022-10-23T06:10:13;100663.50;;;4.57;68.06
51715;BME280;39115;59.332;18.034;2022-10-23T06:12:38;100668.66;;;4.59;68.36
51715;BME280;39115;59.332;18.034;2022-10-23T06:15:04;100665.84;;;4.62;68.01
51715;BME280;39115;59.332;18.034;2022-10-23T06:17:29;100671.84;;;4.64;67.90
51715;BME280;39115;59.332;18.034;2022-10-23T06:19:55;100682.22;;;4.67;68.15
51715;BME280;39115;59.332;18.034;2022-10-23T06:22:25;100681.34;;;4.67;67.70
51715;BME280;39115;59.332;18.034;2022-10-23T06:24:51;100686.06;;;4.62;67.97
51715;BME280;39115;59.332;18.034;2022-10-23T06:27:16;100685.41;;;4.58;68.51
51715;BME280;39115;59.332;18.034;2022-10-23T06:29:41;100698.72;;;4.56;68.51
51715;BME280;39115;59.332;18.034;2022-10-23T06:32:07;100698.06;;;4.53;68.60
51715;BME280;39115;59.332;18.034;2022-10-23T06:34:32;100699.28;;;4.47;67.98
51715;BME280;39115;59.332;18.034;2022-10-23T06:36:57;100710.97;;;4.43;68.35
51715;BME280;39115;59.332;18.034;2022-10-23T06:39:23;100707.59;;;4.41;68.51
51715;BME280;39115;59.332;18.034;2022-10-23T06:41:48;100723.28;;;4.42;68.19
51715;BME280;39115;59.332;18.034;2022-10-23T06:44:13;100715.28;;;4.44;68.10
51715;BME280;39115;59.332;18.034;2022-10-23T06:46:38;100716.03;;;4.46;68.24
51715;BME280;39115;59.332;18.034;2022-10-23T06:49:04;100717.75;;;4.47;68.56
51715;BME280;39115;59.332;18.034;2022-10-23T06:51:29;100725.66;;;4.47;68.31
51715;BME280;39115;59.332;18.034;2022-10-23T06:53:55;100723.94;;;4.46;68.26
51715;BME280;39115;59.332;18.034;2022-10-23T06:56:20;100724.88;;;4.45;68.45
51715;BME280;39115;59.332;18.034;2022-10-23T06:58:46;100725.81;;;4.44;68.62
51715;BME280;39115;59.332;18.034;2022-10-23T07:01:12;100715.28;;;4.44;68.19
51715;BME280;39115;59.332;18.034;2022-10-23T07:03:37;100724.88;;;4.45;68.39
51715;BME280;39115;59.332;18.034;2022-10-23T07:06:03;100721.53;;;4.43;68.11
51715;BME280;39115;59.332;18.034;2022-10-23T07:08:30;100724.06;;;4.45;68.19
51715;BME280;39115;59.332;18.034;2022-10-23T07:10:55;100725.75;;;4.46;68.17
51715;BME280;39115;59.332;18.034;2022-10-23T07:13:21;100723.19;;;4.44;68.55
51715;BME280;39115;59.332;18.034;2022-10-23T07:15:46;100730.09;;;4.47;67.92
51715;BME280;39115;59.332;18.034;2022-10-23T07:18:12;100729.03;;;4.49;68.40
51715;BME280;39115;59.332;18.034;2022-10-23T07:20:42;100727.25;;;4.50;68.46
51715;BME280;39115;59.332;18.034;2022-10-23T07:23:08;100732.34;;;4.53;68.39
51715;BME280;39115;59.332;18.034;2022-10-23T07:25:35;100731.09;;;4.58;67.71
51715;BME280;39115;59.332;18.034;2022-10-23T07:28:00;100735.13;;;4.64;67.94
51715;BME280;39115;59.332;18.034;2022-10-23T07:30:25;100735.06;;;4.66;67.95
51715;BME280;39115;59.332;18.034;2022-10-23T07:32:51;100735.59;;;4.71;67.76
51715;BME280;39115;59.332;18.034;2022-10-23T07:35:16;100741.41;;;4.76;68.25
51715;BME280;39115;59.332;18.034;2022-10-23T07:37:42;100736.78;;;4.80;67.65
51715;BME280;39115;59.332;18.034;2022-10-23T07:40:07;100734.91;;;4.82;68.16
51715;BME280;39115;59.332;18.034;2022-10-23T07:42:33;100741.88;;;4.83;67.73
51715;BME280;39115;59.332;18.034;2022-10-23T07:44:58;100737.44;;;4.83;67.77
51715;BME280;39115;59.332;18.034;2022-10-23T07:47:23;100748.56;;;4.88;68.06
51715;BME280;39115;59.332;18.034;2022-10-23T07:49:49;100736.22;;;4.89;67.67
51715;BME280;39115;59.332;18.034;2022-10-23T07:52:14;100744.88;;;4.91;67.85
51715;BME280;39115;59.332;18.034;2022-10-23T07:54:39;100744.00;;;4.90;67.94
51715;BME280;39115;59.332;18.034;2022-10-23T07:57:05;100743.19;;;4.90;67.58
51715;BME280;39115;59.332;18.034;2022-10-23T07:59:32;100745.81;;;4.90;67.91
51715;BME280;39115;59.332;18.034;2022-10-23T08:01:57;100747.63;;;4.89;68.05
51715;BME280;39115;59.332;18.034;2022-10-23T08:04:23;100751.09;;;4.90;67.50
51715;BME280;39115;59.332;18.034;2022-10-23T08:06:49;100759.13;;;4.88;68.07
51715;BME280;39115;59.332;18.034;2022-10-23T08:09:14;100753.75;;;4.90;67.52
51715;BME280;39115;59.332;18.034;2022-10-23T08:11:39;100761.47;;;4.93;68.06
51715;BME280;39115;59.332;18.034;2022-10-23T08:14:05;100762.84;;;4.99;68.09
51715;BME280;39115;59.332;18.034;2022-10-23T08:16:31;100758.88;;;5.06;67.52
51715;BME280;39115;59.332;18.034;2022-10-23T08:18:56;100762.91;;;5.12;67.32
51715;BME280;39115;59.332;18.034;2022-10-23T08:21:22;100761.84;;;5.14;67.37
51715;BME280;39115;59.332;18.034;2022-10-23T08:23:47;100765.13;;;5.18;67.83
51715;BME280;39115;59.332;18.034;2022-10-23T08:26:13;100758.44;;;5.27;67.09
51715;BME280;39115;59.332;18.034;2022-10-23T08:28:38;100770.19;;;5.35;67.81
51715;BME280;39115;59.332;18.034;2022-10-23T08:31:07;100770.72;;;5.41;67.26
51715;BME280;39115;59.332;18.034;2022-10-23T08:33:33;100766.63;;;5.49;67.55
51715;BME280;39115;59.332;18.034;2022-10-23T08:35:58;100779.25;;;5.59;67.64
51715;BME280;39115;59.332;18.034;2022-10-23T08:38:23;100775.97;;;5.68;67.48
51715;BME280;39115;59.332;18.034;2022-10-23T08:40:49;100781.69;;;5.75;67.43
51715;BME280;39115;59.332;18.034;2022-10-23T08:43:19;100788.47;;;5.79;67.03
51715;BME280;39115;59.332;18.034;2022-10-23T08:45:53;100788.06;;;5.85;67.32
51715;BME280;39115;59.332;18.034;2022-10-23T08:50:52;100792.75;;;5.94;67.12
51715;BME280;39115;59.332;18.034;2022-10-23T08:55:56;100795.75;;;6.03;67.00
51715;BME280;39115;59.332;18.034;2022-10-23T08:58:24;100797.00;;;6.10;67.10
51715;BME280;39115;59.332;18.034;2022-10-23T09:00:53;100797.22;;;6.20;66.56
51715;BME280;39115;59.332;18.034;2022-10-23T09:03:18;100793.94;;;6.29;66.50
51715;BME280;39115;59.332;18.034;2022-10-23T09:18:32;100792.22;;;6.67;66.53
51715;BME280;39115;59.332;18.034;2022-10-23T09:20:57;100798.25;;;6.69;66.77
51715;BME280;39115;59.332;18.034;2022-10-23T09:23:23;100794.53;;;6.71;67.00
51715;BME280;39115;59.332;18.034;2022-10-23T09:25:49;100802.03;;;6.77;66.92
51715;BME280;39115;59.332;18.034;2022-10-23T09:28:23;100798.75;;;6.87;66.85
51715;BME280;39115;59.332;18.034;2022-10-23T09:30:49;100806.03;;;6.96;66.52
51715;BME280;39115;59.332;18.034;2022-10-23T09:33:18;100807.41;;;7.02;66.71
51715;BME280;39115;59.332;18.034;2022-10-23T09:36:01;100808.41;;;7.12;66.55
51715;BME280;39115;59.332;18.034;2022-10-23T09:40:59;100816.94;;;7.28;66.49
51715;BME280;39115;59.332;18.034;2022-10-23T09:43:25;100813.34;;;7.30;66.21
51715;BME280;39115;59.332;18.034;2022-10-23T09:45:59;100818.28;;;7.34;66.43
51715;BME280;39115;59.332;18.034;2022-10-23T09:48:24;100818.09;;;7.37;66.29
51715;BME280;39115;59.332;18.034;2022-10-23T09:50:53;100825.56;;;7.43;66.04
51715;BME280;39115;59.332;18.034;2022-10-23T09:55:51;100836.44;;;7.52;66.44
51715;BME280;39115;59.332;18.034;2022-10-23T09:58:20;100836.72;;;7.60;66.19
51715;BME280;39115;59.332;18.034;2022-10-23T10:00:49;100836.28;;;7.66;66.11
51715;BME280;39115;59.332;18.034;2022-10-23T10:03:20;100825.22;;;7.72;66.30
51715;BME280;39115;59.332;18.034;2022-10-23T10:05:52;100825.63;;;7.79;66.18
51715;BME280;39115;59.332;18.034;2022-10-23T10:08:29;100817.19;;;7.85;66.01
51715;BME280;39115;59.332;18.034;2022-10-23T10:16:06;100818.34;;;8.05;66.32
51715;BME280;39115;59.332;18.034;2022-10-23T10:23:46;100823.56;;;8.30;65.98
51715;BME280;39115;59.332;18.034;2022-10-23T10:26:19;100816.34;;;8.32;66.31
51715;BME280;39115;59.332;18.034;2022-10-23T10:31:24;100817.34;;;8.42;66.02
51715;BME280;39115;59.332;18.034;2022-10-23T10:34:02;100817.06;;;8.45;66.07
51715;BME280;39115;59.332;18.034;2022-10-23T10:36:42;100826.63;;;8.48;65.84
51715;BME280;39115;59.332;18.034;2022-10-23T10:39:23;100821.09;;;8.51;66.35
51715;BME280;39115;59.332;18.034;2022-10-23T10:41:58;100823.28;;;8.57;65.84
51715;BME280;39115;59.332;18.034;2022-10-23T10:46:58;100830.75;;;8.63;66.03
51715;BME280;39115;59.332;18.034;2022-10-23T10:57:34;100834.50;;;8.72;66.17
51715;BME280;39115;59.332;18.034;2022-10-23T11:00:03;100830.63;;;8.76;65.73
51715;BME280;39115;59.332;18.034;2022-10-23T11:02:38;100836.31;;;8.83;65.87
51715;BME280;39115;59.332;18.034;2022-10-23T11:05:28;100828.13;;;8.86;66.10
51715;BME280;39115;59.332;18.034;2022-10-23T11:08:06;100838.47;;;8.89;65.84
51715;BME280;39115;59.332;18.034;2022-10-23T11:10:36;100828.59;;;8.91;65.70
51715;BME280;39115;59.332;18.034;2022-10-23T11:13:02;100831.72;;;8.96;66.13
51715;BME280;39115;59.332;18.034;2022-10-23T11:15:32;100831.47;;;8.99;65.46
51715;BME280;39115;59.332;18.034;2022-10-23T11:18:03;100826.91;;;9.01;65.79
51715;BME280;39115;59.332;18.034;2022-10-23T11:26:14;100835.78;;;9.12;66.19
51715;BME280;39115;59.332;18.034;2022-10-23T11:39:40;100847.56;;;9.42;65.61
51715;BME280;39115;59.332;18.034;2022-10-23T11:52:32;100859.94;;;9.75;65.65
51715;BME280;39115;59.332;18.034;2022-10-23T11:55:01;100851.81;;;9.77;65.84
51715;BME280;39115;59.332;18.034;2022-10-23T11:57:26;100861.22;;;9.81;65.54
51715;BME280;39115;59.332;18.034;2022-10-23T11:59:52;100851.16;;;9.85;65.67
51715;BME280;39115;59.332;18.034;2022-10-23T12:04:48;100854.88;;;9.93;65.75
51715;BME280;39115;59.332;18.034;2022-10-23T12:07:21;100862.50;;;9.98;65.77
51715;BME280;39115;59.332;18.034;2022-10-23T12:09:54;100860.13;;;10.05;65.69
51715;BME280;39115;59.332;18.034;2022-10-23T12:12:28;100862.41;;;10.09;65.18
51715;BME280;39115;59.332;18.034;2022-10-23T12:15:05;100859.63;;;10.11;65.37
51715;BME280;39115;59.332;18.034;2022-10-23T12:17:32;100855.03;;;10.13;65.33
51715;BME280;39115;59.332;18.034;2022-10-23T12:22:31;100854.06;;;10.14;65.64
51715;BME280;39115;59.332;18.034;2022-10-23T12:25:03;100860.25;;;10.15;65.51
51715;BME280;39115;59.332;18.034;2022-10-23T12:27:42;100863.59;;;10.17;65.57
51715;BME280;39115;59.332;18.034;2022-10-23T12:30:20;100856.34;;;10.19;65.93
51715;BME280;39115;59.332;18.034;2022-10-23T12:38:19;100858.47;;;10.25;65.14
51715;BME280;39115;59.332;18.034;2022-10-23T12:40:50;100853.88;;;10.27;65.23
51715;BME280;39115;59.332;18.034;2022-10-23T12:43:26;100859.91;;;10.29;65.61
51715;BME280;39115;59.332;18.034;2022-10-23T12:45:52;100849.97;;;10.31;64.97
51715;BME280;39115;59.332;18.034;2022-10-23T12:48:19;100856.13;;;10.32;65.59
51715;BME280;39115;59.332;18.034;2022-10-23T12:50:52;100847.03;;;10.34;65.53
51715;BME280;39115;59.332;18.034;2022-10-23T12:53:19;100848.97;;;10.43;65.57
51715;BME280;39115;59.332;18.034;2022-10-23T12:55:46;100851.09;;;10.50;65.32
51715;BME280;39115;59.332;18.034;2022-10-23T12:58:22;100854.19;;;10.55;64.88
51715;BME280;39115;59.332;18.034;2022-10-23T13:00:50;100849.59;;;10.57;64.89
51715;BME280;39115;59.332;18.034;2022-10-23T13:03:15;100848.88;;;10.55;64.75
51715;BME280;39115;59.332;18.034;2022-10-23T13:05:40;100848.75;;;10.56;65.48
51715;BME280;39115;59.332;18.034;2022-10-23T13:08:07;100856.47;;;10.59;65.32
51715;BME280;39115;59.332;18.034;2022-10-23T13:10:33;100853.69;;;10.61;65.31
51715;BME280;39115;59.332;18.034;2022-10-23T13:13:01;100859.84;;;10.62;65.55
51715;BME280;39115;59.332;18.034;2022-10-23T13:15:35;100856.91;;;10.65;65.31
51715;BME280;39115;59.332;18.034;2022-10-23T13:18:01;100852.69;;;10.62;64.93
51715;BME280;39115;59.332;18.034;2022-10-23T13:20:31;100852.00;;;10.60;65.50
51715;BME280;39115;59.332;18.034;2022-10-23T13:25:25;100855.78;;;10.57;64.72
51715;BME280;39115;59.332;18.034;2022-10-23T13:28:01;100851.41;;;10.56;65.35
51715;BME280;39115;59.332;18.034;2022-10-23T13:30:28;100860.81;;;10.60;65.20
51715;BME280;39115;59.332;18.034;2022-10-23T13:32:53;100855.09;;;10.65;65.20
51715;BME280;39115;59.332;18.034;2022-10-23T13:35:22;100853.84;;;10.69;65.26
51715;BME280;39115;59.332;18.034;2022-10-23T13:37:47;100855.28;;;10.73;64.64
51715;BME280;39115;59.332;18.034;2022-10-23T13:40:24;100848.13;;;10.74;65.24
51715;BME280;39115;59.332;18.034;2022-10-23T13:42:50;100848.25;;;10.72;64.75
51715;BME280;39115;59.332;18.034;2022-10-23T13:45:23;100846.47;;;10.73;65.39
51715;BME280;39115;59.332;18.034;2022-10-23T13:47:49;100850.09;;;10.72;64.88
51715;BME280;39115;59.332;18.034;2022-10-23T13:50:14;100850.19;;;10.70;64.94
51715;BME280;39115;59.332;18.034;2022-10-23T13:52:40;100852.19;;;10.68;64.95
51715;BME280;39115;59.332;18.034;2022-10-23T13:55:10;100846.00;;;10.68;65.17
51715;BME280;39115;59.332;18.034;2022-10-23T13:57:41;100848.66;;;10.68;64.99
51715;BME280;39115;59.332;18.034;2022-10-23T14:00:07;100845.41;;;10.64;64.83
51715;BME280;39115;59.332;18.034;2022-10-23T14:02:32;100850.31;;;10.59;65.09
51715;BME280;39115;59.332;18.034;2022-10-23T14:04:57;100846.47;;;10.52;64.79
51715;BME280;39115;59.332;18.034;2022-10-23T14:07:23;100840.00;;;10.44;64.79
51715;BME280;39115;59.332;18.034;2022-10-23T14:09:48;100845.81;;;10.38;64.95
51715;BME280;39115;59.332;18.034;2022-10-23T14:12:13;100838.22;;;10.34;65.21
51715;BME280;39115;59.332;18.034;2022-10-23T14:14:38;100845.88;;;10.27;65.23
51715;BME280;39115;59.332;18.034;2022-10-23T14:17:04;100850.63;;;10.23;65.26
51715;BME280;39115;59.332;18.034;2022-10-23T14:19:29;100852.69;;;10.20;65.34
51715;BME280;39115;59.332;18.034;2022-10-23T14:21:54;100846.06;;;10.14;65.17
51715;BME280;39115;59.332;18.034;2022-10-23T14:24:20;100853.47;;;10.10;65.06
51715;BME280;39115;59.332;18.034;2022-10-23T14:26:45;100852.06;;;10.06;65.03
51715;BME280;39115;59.332;18.034;2022-10-23T14:29:11;100853.41;;;10.01;65.80
51715;BME280;39115;59.332;18.034;2022-10-23T14:31:36;100852.09;;;9.95;65.01